Kimberly, WI (54136)

11:28 PM CDT on May 28, 2015 (GMT -0500)
N9OEQ - Darboy USA | | Change Station
CLOSE
Current Station
Personal Weather Station
Location: Appleton, WI
Elevation: 735 ft
Nearby Weather Stations

Elev 735 ft 44.25 °N, 88.35 °W | Updated 1 second ago

Clear
Clear
69.6 °F
Feels Like 69.6 °F
N
1.6
Wind Variable Wind from WSW
Gusts 3.1 mph

Today
High -- | Low -- °F
--% Chance of Precip.
Yesterday
High -- | Low -- °F
Precip. -- in
5:15 AM 8:26 PM
Waxing Gibbous, 81% visible
Pressure 30.06 in
Visibility 10.0 miles
Clouds Clear
Dew Point 53 °F
Humidity 56%
Rainfall 0.40 in
Snow Depth Not available.
UV 0 out of 12
Pollen 8.40 out of 12
Air Quality Not available.
Flu Activity Sporadic
METAR KATW 290415Z AUTO 16009KT 10SM CLR 20/10 A3006 RMK AO2

More Conditions Fewer Conditions

Pressure 30.06 in
Visibility 10.0 miles
Clouds Clear
Dew Point 53 °F
Humidity 56%
Rainfall 0.40 in
Snow Depth Not available.
UV 0 out of 12
Pollen 8.40 out of 12
Air Quality Not available.
Flu Activity Sporadic
METAR KATW 290415Z AUTO 16009KT 10SM CLR 20/10 A3006 RMK AO2

More Conditions Fewer Conditions

10-Day Weather Forecast

Almanac

Astronomy

May. 28, 2015 Rise Set
Actual Time
Civil Twilight
Nautical Twilight
Astronomical Twilight
Moon
Length of Visible Light
Length of Day
Tomorrow will be .
, % of the Moon is Illuminated

Today's Extremes

State Highs State Lows

Community

WunderPhotos

Upload Photos

1,825,188 photos uploaded!

WunderBlogs® & News

Nearby

Air Quality

  Air Quality AQ Index Pollutant
Not available.

Snow Depth

Station Depth Elevation

Earthquake Activity

City Distance Mag. Time & Date
Minimum magnitude displayed is 2.5.

Coastal Water Temperatures

Place Temperature

Stations

Nearby Weather Stations

Station Location Temp. Windchill Dew Point Humidity Wind Precip. Elev Updated Type